sensor_id;sensor_type;location;lat;lon;timestamp;P1;durP1;ratioP1;P2;durP2;ratioP2
29246;SDS011;16272;48.188;9.964;2024-02-15T00:01:00;6.45;;;1.92;;
29246;SDS011;16272;48.188;9.964;2024-02-15T00:03:25;5.90;;;1.80;;
29246;SDS011;16272;48.188;9.964;2024-02-15T00:05:50;6.40;;;2.07;;
29246;SDS011;16272;48.188;9.964;2024-02-15T00:08:15;10.40;;;2.30;;
29246;SDS011;16272;48.188;9.964;2024-02-15T00:10:41;6.80;;;2.00;;
29246;SDS011;16272;48.188;9.964;2024-02-15T00:13:06;6.20;;;1.97;;
29246;SDS011;16272;48.188;9.964;2024-02-15T00:15:32;6.20;;;1.70;;
29246;SDS011;16272;48.188;9.964;2024-02-15T00:17:59;6.07;;;1.80;;
29246;SDS011;16272;48.188;9.964;2024-02-15T00:20:24;6.50;;;1.60;;
29246;SDS011;16272;48.188;9.964;2024-02-15T00:22:50;5.50;;;1.80;;
29246;SDS011;16272;48.188;9.964;2024-02-15T00:25:16;5.82;;;1.80;;
29246;SDS011;16272;48.188;9.964;2024-02-15T00:27:41;6.57;;;1.90;;
29246;SDS011;16272;48.188;9.964;2024-02-15T00:30:06;5.53;;;1.50;;
29246;SDS011;16272;48.188;9.964;2024-02-15T00:32:33;5.75;;;1.70;;
29246;SDS011;16272;48.188;9.964;2024-02-15T00:34:58;6.30;;;1.80;;
29246;SDS011;16272;48.188;9.964;2024-02-15T00:37:23;5.30;;;1.63;;
29246;SDS011;16272;48.188;9.964;2024-02-15T00:39:49;6.10;;;1.67;;
29246;SDS011;16272;48.188;9.964;2024-02-15T00:42:14;6.13;;;1.90;;
29246;SDS011;16272;48.188;9.964;2024-02-15T00:44:40;5.80;;;1.40;;
29246;SDS011;16272;48.188;9.964;2024-02-15T00:47:06;6.53;;;1.77;;
29246;SDS011;16272;48.188;9.964;2024-02-15T00:49:32;6.63;;;2.00;;
29246;SDS011;16272;48.188;9.964;2024-02-15T00:51:58;6.17;;;1.60;;
29246;SDS011;16272;48.188;9.964;2024-02-15T00:54:24;6.13;;;1.90;;
29246;SDS011;16272;48.188;9.964;2024-02-15T00:56:49;5.57;;;1.70;;
29246;SDS011;16272;48.188;9.964;2024-02-15T00:59:15;6.07;;;1.90;;
29246;SDS011;16272;48.188;9.964;2024-02-15T01:01:41;7.43;;;2.13;;
29246;SDS011;16272;48.188;9.964;2024-02-15T01:04:06;6.07;;;1.90;;
29246;SDS011;16272;48.188;9.964;2024-02-15T01:06:32;6.35;;;2.10;;
29246;SDS011;16272;48.188;9.964;2024-02-15T01:08:58;6.13;;;1.67;;
29246;SDS011;16272;48.188;9.964;2024-02-15T01:11:26;6.50;;;2.00;;
29246;SDS011;16272;48.188;9.964;2024-02-15T01:13:53;6.00;;;2.03;;
29246;SDS011;16272;48.188;9.964;2024-02-15T01:16:18;6.03;;;1.50;;
29246;SDS011;16272;48.188;9.964;2024-02-15T01:18:43;5.77;;;1.73;;
29246;SDS011;16272;48.188;9.964;2024-02-15T01:23:36;5.05;;;1.30;;
29246;SDS011;16272;48.188;9.964;2024-02-15T01:26:01;5.17;;;1.23;;
29246;SDS011;16272;48.188;9.964;2024-02-15T01:28:27;5.13;;;1.33;;
29246;SDS011;16272;48.188;9.964;2024-02-15T01:30:52;5.63;;;1.50;;
29246;SDS011;16272;48.188;9.964;2024-02-15T01:33:19;6.35;;;1.80;;
29246;SDS011;16272;48.188;9.964;2024-02-15T01:35:44;6.23;;;1.93;;
29246;SDS011;16272;48.188;9.964;2024-02-15T01:38:10;6.70;;;2.00;;
29246;SDS011;16272;48.188;9.964;2024-02-15T01:40:35;6.40;;;1.90;;
29246;SDS011;16272;48.188;9.964;2024-02-15T01:43:00;5.40;;;1.60;;
29246;SDS011;16272;48.188;9.964;2024-02-15T01:45:26;5.50;;;1.57;;
29246;SDS011;16272;48.188;9.964;2024-02-15T01:47:53;5.80;;;1.90;;
29246;SDS011;16272;48.188;9.964;2024-02-15T01:50:19;5.90;;;1.80;;
29246;SDS011;16272;48.188;9.964;2024-02-15T01:52:47;6.65;;;1.95;;
29246;SDS011;16272;48.188;9.964;2024-02-15T01:55:14;5.90;;;1.60;;
29246;SDS011;16272;48.188;9.964;2024-02-15T01:57:43;4.90;;;1.25;;
29246;SDS011;16272;48.188;9.964;2024-02-15T02:00:11;5.97;;;1.48;;
29246;SDS011;16272;48.188;9.964;2024-02-15T02:02:38;5.43;;;1.40;;
29246;SDS011;16272;48.188;9.964;2024-02-15T02:05:06;6.20;;;1.40;;
29246;SDS011;16272;48.188;9.964;2024-02-15T02:07:31;5.70;;;1.57;;
29246;SDS011;16272;48.188;9.964;2024-02-15T02:09:57;5.90;;;1.57;;
29246;SDS011;16272;48.188;9.964;2024-02-15T02:12:22;5.07;;;1.20;;
29246;SDS011;16272;48.188;9.964;2024-02-15T02:14:49;5.55;;;1.50;;
29246;SDS011;16272;48.188;9.964;2024-02-15T02:17:15;5.35;;;1.50;;
29246;SDS011;16272;48.188;9.964;2024-02-15T02:19:43;5.70;;;1.70;;
29246;SDS011;16272;48.188;9.964;2024-02-15T02:22:09;5.97;;;1.85;;
29246;SDS011;16272;48.188;9.964;2024-02-15T02:24:36;6.00;;;1.93;;
29246;SDS011;16272;48.188;9.964;2024-02-15T02:27:10;5.85;;;2.10;;
29246;SDS011;16272;48.188;9.964;2024-02-15T02:29:41;6.80;;;2.23;;
29246;SDS011;16272;48.188;9.964;2024-02-15T02:32:10;8.02;;;2.60;;
29246;SDS011;16272;48.188;9.964;2024-02-15T02:34:36;7.40;;;2.40;;
29246;SDS011;16272;48.188;9.964;2024-02-15T02:37:01;7.50;;;2.40;;
29246;SDS011;16272;48.188;9.964;2024-02-15T02:39:30;7.35;;;2.38;;
29246;SDS011;16272;48.188;9.964;2024-02-15T02:41:56;6.50;;;2.30;;
29246;SDS011;16272;48.188;9.964;2024-02-15T02:44:22;6.30;;;1.63;;
29246;SDS011;16272;48.188;9.964;2024-02-15T02:46:47;6.50;;;1.93;;
29246;SDS011;16272;48.188;9.964;2024-02-15T02:49:12;5.70;;;1.50;;
29246;SDS011;16272;48.188;9.964;2024-02-15T02:51:38;6.80;;;2.10;;
29246;SDS011;16272;48.188;9.964;2024-02-15T02:54:03;6.63;;;1.70;;
29246;SDS011;16272;48.188;9.964;2024-02-15T02:56:31;7.18;;;2.20;;
29246;SDS011;16272;48.188;9.964;2024-02-15T02:58:57;6.47;;;1.90;;
29246;SDS011;16272;48.188;9.964;2024-02-15T03:01:23;5.50;;;1.63;;
29246;SDS011;16272;48.188;9.964;2024-02-15T03:03:51;6.07;;;1.50;;
29246;SDS011;16272;48.188;9.964;2024-02-15T03:06:17;5.85;;;1.77;;
29246;SDS011;16272;48.188;9.964;2024-02-15T03:08:42;6.57;;;1.97;;
29246;SDS011;16272;48.188;9.964;2024-02-15T03:11:09;6.68;;;2.00;;
29246;SDS011;16272;48.188;9.964;2024-02-15T03:16:00;5.60;;;1.50;;
29246;SDS011;16272;48.188;9.964;2024-02-15T03:18:25;6.47;;;2.00;;
29246;SDS011;16272;48.188;9.964;2024-02-15T03:20:51;7.80;;;2.20;;
29246;SDS011;16272;48.188;9.964;2024-02-15T03:23:16;5.90;;;1.60;;
29246;SDS011;16272;48.188;9.964;2024-02-15T03:25:42;7.10;;;2.13;;
29246;SDS011;16272;48.188;9.964;2024-02-15T03:28:08;6.20;;;1.73;;
29246;SDS011;16272;48.188;9.964;2024-02-15T03:30:33;6.30;;;2.00;;
29246;SDS011;16272;48.188;9.964;2024-02-15T03:32:59;6.50;;;1.90;;
29246;SDS011;16272;48.188;9.964;2024-02-15T03:35:25;6.20;;;1.93;;
29246;SDS011;16272;48.188;9.964;2024-02-15T03:37:51;6.95;;;2.13;;
29246;SDS011;16272;48.188;9.964;2024-02-15T03:40:18;6.68;;;2.13;;
29246;SDS011;16272;48.188;9.964;2024-02-15T03:42:44;7.65;;;2.10;;
29246;SDS011;16272;48.188;9.964;2024-02-15T03:45:09;8.03;;;2.20;;
29246;SDS011;16272;48.188;9.964;2024-02-15T03:47:36;6.43;;;2.10;;
29246;SDS011;16272;48.188;9.964;2024-02-15T03:50:02;6.33;;;2.00;;
29246;SDS011;16272;48.188;9.964;2024-02-15T03:52:28;11.18;;;1.60;;
29246;SDS011;16272;48.188;9.964;2024-02-15T03:54:55;5.90;;;1.85;;
29246;SDS011;16272;48.188;9.964;2024-02-15T03:57:22;6.30;;;1.83;;
29246;SDS011;16272;48.188;9.964;2024-02-15T03:59:47;5.97;;;1.60;;
29246;SDS011;16272;48.188;9.964;2024-02-15T04:02:17;6.10;;;1.88;;
29246;SDS011;16272;48.188;9.964;2024-02-15T04:04:43;5.83;;;1.83;;
29246;SDS011;16272;48.188;9.964;2024-02-15T04:07:11;6.20;;;1.70;;
29246;SDS011;16272;48.188;9.964;2024-02-15T04:09:37;5.90;;;1.73;;
29246;SDS011;16272;48.188;9.964;2024-02-15T04:12:02;6.00;;;1.80;;
29246;SDS011;16272;48.188;9.964;2024-02-15T04:14:28;6.33;;;1.80;;
29246;SDS011;16272;48.188;9.964;2024-02-15T04:16:53;7.18;;;2.10;;
29246;SDS011;16272;48.188;9.964;2024-02-15T04:19:18;6.10;;;1.90;;
29246;SDS011;16272;48.188;9.964;2024-02-15T04:21:45;6.40;;;1.90;;
29246;SDS011;16272;48.188;9.964;2024-02-15T04:24:11;7.15;;;1.95;;
29246;SDS011;16272;48.188;9.964;2024-02-15T04:26:37;7.87;;;2.33;;
29246;SDS011;16272;48.188;9.964;2024-02-15T04:29:03;6.53;;;2.05;;
29246;SDS011;16272;48.188;9.964;2024-02-15T04:31:29;6.13;;;1.92;;
29246;SDS011;16272;48.188;9.964;2024-02-15T04:33:57;6.70;;;1.83;;
29246;SDS011;16272;48.188;9.964;2024-02-15T04:36:23;6.43;;;1.70;;
29246;SDS011;16272;48.188;9.964;2024-02-15T04:38:50;6.90;;;1.60;;
29246;SDS011;16272;48.188;9.964;2024-02-15T04:41:16;5.57;;;1.47;;
29246;SDS011;16272;48.188;9.964;2024-02-15T04:43:48;6.10;;;1.83;;
29246;SDS011;16272;48.188;9.964;2024-02-15T04:46:13;6.13;;;1.90;;
29246;SDS011;16272;48.188;9.964;2024-02-15T04:48:39;6.53;;;2.00;;
29246;SDS011;16272;48.188;9.964;2024-02-15T04:51:06;6.63;;;2.10;;
29246;SDS011;16272;48.188;9.964;2024-02-15T04:53:32;7.60;;;2.60;;
29246;SDS011;16272;48.188;9.964;2024-02-15T04:55:57;6.50;;;2.10;;
29246;SDS011;16272;48.188;9.964;2024-02-15T04:58:25;6.38;;;2.15;;
29246;SDS011;16272;48.188;9.964;2024-02-15T05:00:53;6.95;;;2.00;;
29246;SDS011;16272;48.188;9.964;2024-02-15T05:03:22;6.43;;;2.10;;
29246;SDS011;16272;48.188;9.964;2024-02-15T05:05:48;6.23;;;2.00;;
29246;SDS011;16272;48.188;9.964;2024-02-15T05:08:13;7.13;;;2.17;;
29246;SDS011;16272;48.188;9.964;2024-02-15T05:10:39;7.28;;;2.20;;
29246;SDS011;16272;48.188;9.964;2024-02-15T05:13:04;7.50;;;2.50;;
29246;SDS011;16272;48.188;9.964;2024-02-15T05:15:29;7.53;;;2.40;;
29246;SDS011;16272;48.188;9.964;2024-02-15T05:17:55;7.43;;;2.40;;
29246;SDS011;16272;48.188;9.964;2024-02-15T05:20:21;6.87;;;2.30;;
29246;SDS011;16272;48.188;9.964;2024-02-15T05:22:46;7.07;;;2.38;;
29246;SDS011;16272;48.188;9.964;2024-02-15T05:25:12;6.90;;;2.20;;
29246;SDS011;16272;48.188;9.964;2024-02-15T05:27:37;6.93;;;2.40;;
29246;SDS011;16272;48.188;9.964;2024-02-15T05:30:03;7.60;;;2.45;;
29246;SDS011;16272;48.188;9.964;2024-02-15T05:32:35;7.23;;;2.63;;
29246;SDS011;16272;48.188;9.964;2024-02-15T05:35:09;7.57;;;2.88;;
29246;SDS011;16272;48.188;9.964;2024-02-15T05:37:36;8.20;;;3.17;;
29246;SDS011;16272;48.188;9.964;2024-02-15T05:40:01;9.40;;;3.60;;
29246;SDS011;16272;48.188;9.964;2024-02-15T05:42:26;8.73;;;3.67;;
29246;SDS011;16272;48.188;9.964;2024-02-15T05:44:52;7.97;;;3.27;;
29246;SDS011;16272;48.188;9.964;2024-02-15T05:47:17;7.80;;;3.53;;
29246;SDS011;16272;48.188;9.964;2024-02-15T05:49:42;8.50;;;3.80;;
29246;SDS011;16272;48.188;9.964;2024-02-15T05:52:08;9.23;;;3.87;;
29246;SDS011;16272;48.188;9.964;2024-02-15T05:54:33;8.70;;;3.95;;
29246;SDS011;16272;48.188;9.964;2024-02-15T05:56:59;9.97;;;4.10;;
29246;SDS011;16272;48.188;9.964;2024-02-15T05:59:25;8.98;;;3.72;;
29246;SDS011;16272;48.188;9.964;2024-02-15T06:01:51;8.77;;;3.77;;
29246;SDS011;16272;48.188;9.964;2024-02-15T06:04:16;9.03;;;3.50;;
29246;SDS011;16272;48.188;9.964;2024-02-15T06:06:41;9.50;;;3.88;;
29246;SDS011;16272;48.188;9.964;2024-02-15T06:09:07;8.77;;;3.80;;
29246;SDS011;16272;48.188;9.964;2024-02-15T06:11:33;9.10;;;3.60;;
29246;SDS011;16272;48.188;9.964;2024-02-15T06:13:58;8.93;;;3.80;;
29246;SDS011;16272;48.188;9.964;2024-02-15T06:16:23;9.03;;;3.80;;
29246;SDS011;16272;48.188;9.964;2024-02-15T06:18:49;8.87;;;3.90;;
29246;SDS011;16272;48.188;9.964;2024-02-15T06:21:14;9.70;;;3.80;;
29246;SDS011;16272;48.188;9.964;2024-02-15T06:23:40;8.47;;;3.70;;
29246;SDS011;16272;48.188;9.964;2024-02-15T06:26:05;8.80;;;3.67;;
29246;SDS011;16272;48.188;9.964;2024-02-15T06:28:31;9.00;;;3.70;;
29246;SDS011;16272;48.188;9.964;2024-02-15T06:31:15;9.20;;;3.87;;
29246;SDS011;16272;48.188;9.964;2024-02-15T06:34:13;8.18;;;3.50;;
29246;SDS011;16272;48.188;9.964;2024-02-15T06:36:59;8.55;;;3.70;;
29246;SDS011;16272;48.188;9.964;2024-02-15T06:39:43;8.77;;;3.50;;
29246;SDS011;16272;48.188;9.964;2024-02-15T06:42:11;8.63;;;3.60;;
29246;SDS011;16272;48.188;9.964;2024-02-15T06:44:39;8.55;;;3.45;;
29246;SDS011;16272;48.188;9.964;2024-02-15T06:47:05;8.73;;;3.30;;
29246;SDS011;16272;48.188;9.964;2024-02-15T06:49:31;8.35;;;3.30;;
29246;SDS011;16272;48.188;9.964;2024-02-15T06:51:57;8.48;;;3.33;;
29246;SDS011;16272;48.188;9.964;2024-02-15T06:54:24;8.32;;;3.47;;
29246;SDS011;16272;48.188;9.964;2024-02-15T06:56:49;7.73;;;3.10;;
29246;SDS011;16272;48.188;9.964;2024-02-15T06:59:17;8.23;;;3.47;;
29246;SDS011;16272;48.188;9.964;2024-02-15T07:01:43;7.63;;;3.22;;
29246;SDS011;16272;48.188;9.964;2024-02-15T07:04:09;9.77;;;3.73;;
29246;SDS011;16272;48.188;9.964;2024-02-15T07:06:37;9.07;;;3.58;;
29246;SDS011;16272;48.188;9.964;2024-02-15T07:09:04;8.40;;;3.60;;
29246;SDS011;16272;48.188;9.964;2024-02-15T07:11:31;8.60;;;3.88;;
29246;SDS011;16272;48.188;9.964;2024-02-15T07:14:02;9.90;;;3.58;;
29246;SDS011;16272;48.188;9.964;2024-02-15T07:16:29;8.57;;;3.47;;
29246;SDS011;16272;48.188;9.964;2024-02-15T07:18:55;8.33;;;3.50;;
29246;SDS011;16272;48.188;9.964;2024-02-15T07:21:20;8.67;;;3.67;;
29246;SDS011;16272;48.188;9.964;2024-02-15T07:23:51;8.80;;;3.70;;
29246;SDS011;16272;48.188;9.964;2024-02-15T07:26:17;8.77;;;3.83;;
29246;SDS011;16272;48.188;9.964;2024-02-15T07:28:45;9.57;;;3.80;;
29246;SDS011;16272;48.188;9.964;2024-02-15T07:31:11;9.05;;;3.85;;
29246;SDS011;16272;48.188;9.964;2024-02-15T07:33:36;9.73;;;4.05;;
29246;SDS011;16272;48.188;9.964;2024-02-15T07:36:02;10.00;;;4.27;;
29246;SDS011;16272;48.188;9.964;2024-02-15T07:38:27;9.30;;;4.07;;
29246;SDS011;16272;48.188;9.964;2024-02-15T07:40:52;9.77;;;4.30;;
29246;SDS011;16272;48.188;9.964;2024-02-15T07:43:18;8.52;;;4.38;;
29246;SDS011;16272;48.188;9.964;2024-02-15T07:45:43;8.80;;;4.23;;
29246;SDS011;16272;48.188;9.964;2024-02-15T07:48:09;9.83;;;4.63;;
29246;SDS011;16272;48.188;9.964;2024-02-15T07:50:34;10.20;;;4.60;;
29246;SDS011;16272;48.188;9.964;2024-02-15T07:53:02;10.80;;;4.32;;
29246;SDS011;16272;48.188;9.964;2024-02-15T07:55:28;9.23;;;4.33;;
29246;SDS011;16272;48.188;9.964;2024-02-15T07:57:53;9.45;;;4.40;;
29246;SDS011;16272;48.188;9.964;2024-02-15T08:00:19;9.50;;;4.47;;
29246;SDS011;16272;48.188;9.964;2024-02-15T08:02:44;9.70;;;4.63;;
29246;SDS011;16272;48.188;9.964;2024-02-15T08:05:10;9.70;;;3.50;;
29246;SDS011;16272;48.188;9.964;2024-02-15T08:07:37;9.07;;;4.17;;
29246;SDS011;16272;48.188;9.964;2024-02-15T08:10:09;9.30;;;4.10;;
29246;SDS011;16272;48.188;9.964;2024-02-15T08:12:41;9.13;;;3.85;;
29246;SDS011;16272;48.188;9.964;2024-02-15T08:15:07;9.80;;;4.00;;
29246;SDS011;16272;48.188;9.964;2024-02-15T08:17:43;8.82;;;3.60;;
29246;SDS011;16272;48.188;9.964;2024-02-15T08:20:13;9.67;;;3.90;;
29246;SDS011;16272;48.188;9.964;2024-02-15T08:22:39;9.77;;;3.80;;
29246;SDS011;16272;48.188;9.964;2024-02-15T08:25:11;10.03;;;4.27;;
29246;SDS011;16272;48.188;9.964;2024-02-15T08:27:38;8.30;;;3.50;;
29246;SDS011;16272;48.188;9.964;2024-02-15T08:30:11;9.73;;;4.05;;
29246;SDS011;16272;48.188;9.964;2024-02-15T08:32:38;8.77;;;3.50;;
29246;SDS011;16272;48.188;9.964;2024-02-15T08:35:04;8.65;;;3.50;;
29246;SDS011;16272;48.188;9.964;2024-02-15T08:37:31;10.25;;;4.18;;
29246;SDS011;16272;48.188;9.964;2024-02-15T08:39:59;8.90;;;3.80;;
29246;SDS011;16272;48.188;9.964;2024-02-15T08:42:24;7.75;;;3.22;;
29246;SDS011;16272;48.188;9.964;2024-02-15T08:44:50;9.13;;;3.30;;
29246;SDS011;16272;48.188;9.964;2024-02-15T08:47:16;8.33;;;3.20;;
29246;SDS011;16272;48.188;9.964;2024-02-15T08:49:41;7.43;;;2.90;;
29246;SDS011;16272;48.188;9.964;2024-02-15T08:52:07;8.63;;;3.00;;
29246;SDS011;16272;48.188;9.964;2024-02-15T08:54:32;7.88;;;2.95;;
29246;SDS011;16272;48.188;9.964;2024-02-15T08:56:58;7.27;;;3.00;;
29246;SDS011;16272;48.188;9.964;2024-02-15T08:59:24;7.32;;;2.75;;
29246;SDS011;16272;48.188;9.964;2024-02-15T09:01:50;8.80;;;3.00;;
29246;SDS011;16272;48.188;9.964;2024-02-15T09:04:16;7.55;;;3.03;;
29246;SDS011;16272;48.188;9.964;2024-02-15T09:06:41;7.93;;;2.80;;
29246;SDS011;16272;48.188;9.964;2024-02-15T09:09:08;7.43;;;2.83;;
29246;SDS011;16272;48.188;9.964;2024-02-15T09:11:33;8.45;;;2.83;;
29246;SDS011;16272;48.188;9.964;2024-02-15T09:13:59;7.03;;;2.67;;
29246;SDS011;16272;48.188;9.964;2024-02-15T09:16:25;6.77;;;2.70;;
29246;SDS011;16272;48.188;9.964;2024-02-15T09:18:50;7.10;;;2.80;;
29246;SDS011;16272;48.188;9.964;2024-02-15T09:21:15;7.03;;;2.70;;
29246;SDS011;16272;48.188;9.964;2024-02-15T09:23:41;6.90;;;2.70;;
29246;SDS011;16272;48.188;9.964;2024-02-15T09:26:06;7.47;;;2.83;;
29246;SDS011;16272;48.188;9.964;2024-02-15T09:28:34;7.18;;;2.40;;
29246;SDS011;16272;48.188;9.964;2024-02-15T09:31:00;6.77;;;2.47;;
29246;SDS011;16272;48.188;9.964;2024-02-15T09:33:26;8.60;;;2.50;;
29246;SDS011;16272;48.188;9.964;2024-02-15T09:35:52;6.43;;;2.23;;
29246;SDS011;16272;48.188;9.964;2024-02-15T09:38:20;6.50;;;2.47;;
29246;SDS011;16272;48.188;9.964;2024-02-15T09:40:48;6.50;;;2.10;;
29246;SDS011;16272;48.188;9.964;2024-02-15T09:43:14;6.50;;;2.45;;
29246;SDS011;16272;48.188;9.964;2024-02-15T09:45:40;7.07;;;2.70;;
29246;SDS011;16272;48.188;9.964;2024-02-15T09:48:05;6.80;;;2.65;;
29246;SDS011;16272;48.188;9.964;2024-02-15T09:50:34;6.70;;;2.40;;
29246;SDS011;16272;48.188;9.964;2024-02-15T09:53:01;6.28;;;1.95;;
29246;SDS011;16272;48.188;9.964;2024-02-15T09:55:28;6.27;;;2.40;;
29246;SDS011;16272;48.188;9.964;2024-02-15T09:57:54;5.70;;;1.70;;
29246;SDS011;16272;48.188;9.964;2024-02-15T10:00:20;6.22;;;1.60;;
29246;SDS011;16272;48.188;9.964;2024-02-15T10:02:52;6.32;;;1.50;;
29246;SDS011;16272;48.188;9.964;2024-02-15T10:05:18;6.47;;;1.60;;
29246;SDS011;16272;48.188;9.964;2024-02-15T10:07:45;5.68;;;1.48;;
29246;SDS011;16272;48.188;9.964;2024-02-15T10:10:20;6.07;;;1.60;;
29246;SDS011;16272;48.188;9.964;2024-02-15T10:12:51;5.80;;;1.70;;
29246;SDS011;16272;48.188;9.964;2024-02-15T10:15:36;5.72;;;1.40;;
29246;SDS011;16272;48.188;9.964;2024-02-15T10:18:03;5.18;;;1.50;;
29246;SDS011;16272;48.188;9.964;2024-02-15T10:20:30;5.35;;;1.15;;
29246;SDS011;16272;48.188;9.964;2024-02-15T10:23:08;5.10;;;1.15;;
29246;SDS011;16272;48.188;9.964;2024-02-15T10:25:38;4.72;;;1.20;;
29246;SDS011;16272;48.188;9.964;2024-02-15T10:28:05;4.97;;;1.37;;
29246;SDS011;16272;48.188;9.964;2024-02-15T10:30:32;4.80;;;1.15;;
29246;SDS011;16272;48.188;9.964;2024-02-15T10:32:59;5.75;;;1.52;;
29246;SDS011;16272;48.188;9.964;2024-02-15T10:35:24;5.20;;;1.23;;
29246;SDS011;16272;48.188;9.964;2024-02-15T10:37:50;5.70;;;1.48;;
29246;SDS011;16272;48.188;9.964;2024-02-15T10:40:19;5.53;;;1.42;;
29246;SDS011;16272;48.188;9.964;2024-02-15T10:42:49;5.45;;;1.30;;
29246;SDS011;16272;48.188;9.964;2024-02-15T10:45:16;5.37;;;1.60;;
29246;SDS011;16272;48.188;9.964;2024-02-15T10:47:43;6.28;;;1.50;;
29246;SDS011;16272;48.188;9.964;2024-02-15T10:50:09;5.85;;;1.40;;
29246;SDS011;16272;48.188;9.964;2024-02-15T10:52:35;5.93;;;1.40;;
29246;SDS011;16272;48.188;9.964;2024-02-15T10:55:07;6.38;;;1.40;;
29246;SDS011;16272;48.188;9.964;2024-02-15T10:57:36;5.20;;;1.67;;
29246;SDS011;16272;48.188;9.964;2024-02-15T11:00:04;5.65;;;1.50;;
29246;SDS011;16272;48.188;9.964;2024-02-15T11:02:42;5.90;;;1.70;;
29246;SDS011;16272;48.188;9.964;2024-02-15T11:05:12;5.55;;;1.60;;
29246;SDS011;16272;48.188;9.964;2024-02-15T11:07:45;5.57;;;1.60;;
29246;SDS011;16272;48.188;9.964;2024-02-15T11:10:11;5.93;;;1.60;;
29246;SDS011;16272;48.188;9.964;2024-02-15T11:12:38;5.05;;;1.45;;
29246;SDS011;16272;48.188;9.964;2024-02-15T11:15:03;5.30;;;1.20;;
29246;SDS011;16272;48.188;9.964;2024-02-15T11:20:08;4.43;;;1.10;;
29246;SDS011;16272;48.188;9.964;2024-02-15T11:22:36;5.50;;;1.40;;
29246;SDS011;16272;48.188;9.964;2024-02-15T11:25:02;5.43;;;1.30;;
29246;SDS011;16272;48.188;9.964;2024-02-15T11:27:33;5.05;;;1.40;;
29246;SDS011;16272;48.188;9.964;2024-02-15T11:30:01;4.65;;;1.20;;
29246;SDS011;16272;48.188;9.964;2024-02-15T11:32:44;4.88;;;1.30;;
29246;SDS011;16272;48.188;9.964;2024-02-15T11:35:21;4.30;;;1.17;;
29246;SDS011;16272;48.188;9.964;2024-02-15T11:40:21;5.60;;;1.40;;
29246;SDS011;16272;48.188;9.964;2024-02-15T11:45:24;5.50;;;1.30;;
29246;SDS011;16272;48.188;9.964;2024-02-15T11:47:51;5.83;;;1.40;;
29246;SDS011;16272;48.188;9.964;2024-02-15T11:50:18;5.00;;;1.50;;
29246;SDS011;16272;48.188;9.964;2024-02-15T11:52:45;5.00;;;1.65;;
29246;SDS011;16272;48.188;9.964;2024-02-15T11:55:13;4.88;;;1.25;;
29246;SDS011;16272;48.188;9.964;2024-02-15T11:57:40;5.40;;;1.60;;
29246;SDS011;16272;48.188;9.964;2024-02-15T12:00:24;5.33;;;1.70;;
29246;SDS011;16272;48.188;9.964;2024-02-15T12:03:09;5.72;;;1.75;;
29246;SDS011;16272;48.188;9.964;2024-02-15T12:05:54;5.80;;;1.70;;
29246;SDS011;16272;48.188;9.964;2024-02-15T12:08:38;5.47;;;1.80;;
29246;SDS011;16272;48.188;9.964;2024-02-15T12:11:23;5.70;;;1.70;;
29246;SDS011;16272;48.188;9.964;2024-02-15T12:14:11;5.47;;;1.85;;
29246;SDS011;16272;48.188;9.964;2024-02-15T12:17:02;5.80;;;1.80;;
29246;SDS011;16272;48.188;9.964;2024-02-15T12:19:50;5.63;;;1.70;;
29246;SDS011;16272;48.188;9.964;2024-02-15T12:22:21;5.60;;;2.00;;
29246;SDS011;16272;48.188;9.964;2024-02-15T12:24:54;5.80;;;1.70;;
29246;SDS011;16272;48.188;9.964;2024-02-15T12:27:20;5.45;;;1.70;;
29246;SDS011;16272;48.188;9.964;2024-02-15T12:29:46;6.07;;;1.77;;
29246;SDS011;16272;48.188;9.964;2024-02-15T12:32:24;5.22;;;1.83;;
29246;SDS011;16272;48.188;9.964;2024-02-15T12:34:51;5.55;;;1.80;;
29246;SDS011;16272;48.188;9.964;2024-02-15T12:37:22;5.30;;;1.80;;
29246;SDS011;16272;48.188;9.964;2024-02-15T12:39:48;5.35;;;1.70;;
29246;SDS011;16272;48.188;9.964;2024-02-15T12:42:14;5.13;;;1.87;;
29246;SDS011;16272;48.188;9.964;2024-02-15T12:44:45;5.60;;;1.90;;
29246;SDS011;16272;48.188;9.964;2024-02-15T12:47:17;5.88;;;2.00;;
29246;SDS011;16272;48.188;9.964;2024-02-15T12:49:43;6.35;;;1.80;;
29246;SDS011;16272;48.188;9.964;2024-02-15T12:55:22;5.75;;;1.88;;
29246;SDS011;16272;48.188;9.964;2024-02-15T12:57:53;5.17;;;1.70;;
29246;SDS011;16272;48.188;9.964;2024-02-15T13:00:21;5.35;;;1.80;;
29246;SDS011;16272;48.188;9.964;2024-02-15T13:02:53;5.40;;;1.90;;
29246;SDS011;16272;48.188;9.964;2024-02-15T13:05:19;5.22;;;1.90;;
29246;SDS011;16272;48.188;9.964;2024-02-15T13:07:46;6.22;;;1.70;;
29246;SDS011;16272;48.188;9.964;2024-02-15T13:10:12;6.28;;;1.95;;
29246;SDS011;16272;48.188;9.964;2024-02-15T13:12:39;5.78;;;2.10;;
29246;SDS011;16272;48.188;9.964;2024-02-15T13:15:06;5.30;;;1.70;;
29246;SDS011;16272;48.188;9.964;2024-02-15T13:17:36;5.78;;;1.90;;
29246;SDS011;16272;48.188;9.964;2024-02-15T13:20:02;6.37;;;1.90;;
29246;SDS011;16272;48.188;9.964;2024-02-15T13:22:30;5.53;;;1.88;;
29246;SDS011;16272;48.188;9.964;2024-02-15T13:24:57;6.13;;;1.80;;
29246;SDS011;16272;48.188;9.964;2024-02-15T13:27:22;6.07;;;2.20;;
29246;SDS011;16272;48.188;9.964;2024-02-15T13:29:49;5.70;;;2.03;;
29246;SDS011;16272;48.188;9.964;2024-02-15T13:32:14;6.93;;;1.73;;
29246;SDS011;16272;48.188;9.964;2024-02-15T13:34:42;6.20;;;1.73;;
29246;SDS011;16272;48.188;9.964;2024-02-15T13:37:07;5.80;;;1.90;;
29246;SDS011;16272;48.188;9.964;2024-02-15T13:39:32;5.60;;;1.90;;
29246;SDS011;16272;48.188;9.964;2024-02-15T13:42:01;5.40;;;2.00;;
29246;SDS011;16272;48.188;9.964;2024-02-15T13:44:26;5.82;;;1.70;;
29246;SDS011;16272;48.188;9.964;2024-02-15T13:46:52;5.83;;;1.97;;
29246;SDS011;16272;48.188;9.964;2024-02-15T13:49:20;5.38;;;1.60;;
29246;SDS011;16272;48.188;9.964;2024-02-15T13:51:48;6.40;;;1.70;;
29246;SDS011;16272;48.188;9.964;2024-02-15T13:54:16;5.95;;;1.73;;
29246;SDS011;16272;48.188;9.964;2024-02-15T13:56:42;5.37;;;1.70;;
29246;SDS011;16272;48.188;9.964;2024-02-15T13:59:07;5.80;;;2.07;;
29246;SDS011;16272;48.188;9.964;2024-02-15T14:01:33;5.43;;;1.85;;
29246;SDS011;16272;48.188;9.964;2024-02-15T14:03:59;4.85;;;1.27;;
29246;SDS011;16272;48.188;9.964;2024-02-15T14:06:24;6.03;;;1.80;;
29246;SDS011;16272;48.188;9.964;2024-02-15T14:08:50;5.30;;;1.50;;
29246;SDS011;16272;48.188;9.964;2024-02-15T14:11:15;5.40;;;1.60;;
29246;SDS011;16272;48.188;9.964;2024-02-15T14:13:42;5.40;;;1.60;;
29246;SDS011;16272;48.188;9.964;2024-02-15T14:16:08;5.70;;;1.60;;
29246;SDS011;16272;48.188;9.964;2024-02-15T14:18:33;5.38;;;1.73;;
29246;SDS011;16272;48.188;9.964;2024-02-15T14:20:59;5.40;;;1.80;;
29246;SDS011;16272;48.188;9.964;2024-02-15T14:23:25;6.17;;;1.87;;
29246;SDS011;16272;48.188;9.964;2024-02-15T14:25:52;5.50;;;1.58;;
29246;SDS011;16272;48.188;9.964;2024-02-15T14:28:18;6.60;;;1.75;;
29246;SDS011;16272;48.188;9.964;2024-02-15T14:30:43;5.50;;;1.80;;
29246;SDS011;16272;48.188;9.964;2024-02-15T14:33:28;5.25;;;1.80;;
29246;SDS011;16272;48.188;9.964;2024-02-15T14:35:53;5.40;;;1.73;;
29246;SDS011;16272;48.188;9.964;2024-02-15T14:38:18;5.83;;;1.80;;
29246;SDS011;16272;48.188;9.964;2024-02-15T14:40:48;5.88;;;1.80;;
29246;SDS011;16272;48.188;9.964;2024-02-15T14:43:22;5.95;;;1.98;;
29246;SDS011;16272;48.188;9.964;2024-02-15T14:45:51;6.22;;;1.90;;
29246;SDS011;16272;48.188;9.964;2024-02-15T14:48:18;5.80;;;1.80;;
29246;SDS011;16272;48.188;9.964;2024-02-15T14:50:45;6.60;;;1.93;;
29246;SDS011;16272;48.188;9.964;2024-02-15T14:53:11;5.88;;;1.73;;
29246;SDS011;16272;48.188;9.964;2024-02-15T14:55:38;6.18;;;1.55;;
29246;SDS011;16272;48.188;9.964;2024-02-15T14:58:06;5.28;;;1.70;;
29246;SDS011;16272;48.188;9.964;2024-02-15T15:00:35;5.90;;;1.27;;
29246;SDS011;16272;48.188;9.964;2024-02-15T15:03:02;5.78;;;1.70;;
29246;SDS011;16272;48.188;9.964;2024-02-15T15:05:28;5.80;;;1.73;;